createdAt,value
2022-08-22T00:00:14.827Z,58.20
2022-08-22T00:02:48.245Z,43.60
2022-08-22T00:03:00.128Z,40.20
2022-08-22T00:03:00.778Z,44.40
2022-08-22T00:03:03.863Z,44.90
2022-08-22T00:03:10.555Z,50.50
2022-08-22T00:06:06.619Z,58.40
2022-08-22T00:08:46.452Z,58.50
2022-08-22T00:11:28.317Z,58.50
2022-08-22T00:14:07.279Z,58.50
2022-08-22T00:16:46.302Z,58.40
2022-08-22T00:19:25.064Z,58.60
2022-08-22T00:22:02.041Z,58.60
2022-08-22T00:24:38.867Z,58.70
2022-08-22T00:27:15.370Z,58.80
2022-08-22T00:29:57.182Z,58.90
2022-08-22T00:32:36.852Z,59.00
2022-08-22T00:35:18.817Z,59.80
2022-08-22T00:37:59.803Z,60.60
2022-08-22T00:40:46.731Z,61.40
2022-08-22T00:43:51.360Z,61.60
2022-08-22T00:46:56.685Z,61.50
2022-08-22T00:49:49.419Z,61.00
2022-08-22T00:52:59.178Z,60.80
2022-08-22T00:55:47.994Z,59.80
2022-08-22T00:58:47.876Z,59.60
2022-08-22T01:01:27.892Z,59.80
2022-08-22T01:04:29.707Z,59.90
2022-08-22T01:07:16.575Z,60.30
2022-08-22T01:09:58.265Z,60.60
2022-08-22T01:12:46.319Z,60.60
2022-08-22T01:15:24.622Z,62.30
2022-08-22T01:18:36.171Z,63.40
2022-08-22T01:21:52.648Z,61.10
2022-08-22T01:25:30.712Z,61.00
2022-08-22T01:28:48.427Z,60.80
2022-08-22T01:32:06.438Z,60.80
2022-08-22T01:35:09.456Z,60.90
2022-08-22T01:38:03.481Z,61.50
2022-08-22T01:40:54.063Z,61.10
2022-08-22T01:43:59.405Z,67.80
2022-08-22T01:46:46.675Z,75.20
2022-08-22T01:49:21.693Z,73.40
2022-08-22T01:52:01.815Z,64.20
2022-08-22T01:54:47.984Z,66.50
2022-08-22T01:57:19.906Z,71.20
2022-08-22T01:59:54.473Z,71.00
2022-08-22T02:02:47.985Z,73.30
2022-08-22T02:05:27.511Z,76.10
2022-08-22T02:08:05.553Z,74.90
2022-08-22T02:10:54.391Z,74.40
2022-08-22T02:13:43.789Z,67.70
2022-08-22T02:16:22.547Z,65.80
2022-08-22T02:19:05.519Z,72.30
2022-08-22T02:21:44.624Z,62.70
2022-08-22T02:24:28.635Z,62.80
2022-08-22T02:27:11.555Z,64.90
2022-08-22T02:29:50.197Z,68.20
2022-08-22T02:32:28.382Z,73.30
2022-08-22T02:35:06.553Z,85.00
2022-08-22T02:37:43.175Z,89.60
2022-08-22T02:40:26.032Z,88.00
2022-08-22T02:43:03.493Z,86.90
2022-08-22T02:45:44.811Z,89.10
2022-08-22T02:48:29.786Z,90.40
2022-08-22T02:51:10.611Z,90.70
2022-08-22T03:04:24.546Z,93.20
2022-08-22T03:07:10.098Z,91.10
2022-08-22T03:09:48.359Z,90.40
2022-08-22T03:12:29.762Z,90.60
2022-08-22T03:15:07.510Z,91.10
2022-08-22T03:17:47.822Z,88.90
2022-08-22T03:20:39.458Z,88.50
2022-08-22T03:23:20.512Z,88.60
2022-08-22T03:26:00.851Z,89.40
2022-08-22T03:28:52.672Z,89.80
2022-08-22T03:31:32.328Z,90.30
2022-08-22T03:39:45.134Z,93.70
2022-08-22T03:42:33.427Z,91.00
2022-08-22T03:45:38.810Z,65.30
2022-08-22T03:48:35.492Z,65.50
2022-08-22T03:51:40.840Z,65.60
2022-08-22T03:54:44.415Z,65.80
2022-08-22T03:58:01.892Z,79.60
2022-08-22T04:04:23.949Z,92.60
2022-08-22T04:10:35.157Z,92.40
2022-08-22T04:13:54.166Z,88.30
2022-08-22T04:16:56.292Z,87.50
2022-08-22T04:19:58.755Z,88.40
2022-08-22T04:22:48.625Z,90.70
2022-08-22T04:25:25.431Z,91.60
2022-08-22T04:28:05.218Z,91.10
2022-08-22T04:30:43.981Z,92.80
2022-08-22T04:33:23.299Z,91.60
2022-08-22T04:36:02.460Z,91.80
2022-08-22T04:38:39.612Z,91.70
2022-08-22T04:41:16.969Z,91.50
2022-08-22T04:43:53.598Z,92.80
2022-08-22T04:46:36.591Z,91.20
2022-08-22T04:49:16.162Z,91.10
2022-08-22T04:51:52.848Z,90.80
2022-08-22T04:54:37.604Z,90.80
2022-08-22T04:57:21.093Z,91.00
2022-08-22T05:00:00.183Z,92.30
2022-08-22T05:05:15.058Z,94.30
2022-08-22T05:10:33.391Z,96.80
2022-08-22T05:13:09.301Z,92.40
2022-08-22T05:15:43.968Z,92.00
2022-08-22T05:18:20.872Z,93.60
2022-08-22T05:20:56.539Z,92.90
2022-08-22T05:23:31.287Z,92.00
2022-08-22T05:26:06.306Z,92.80
2022-08-22T05:28:43.998Z,92.30
2022-08-22T05:31:23.228Z,92.20
2022-08-22T05:34:01.984Z,92.40
2022-08-22T05:36:39.833Z,91.20
2022-08-22T05:39:17.091Z,90.00
2022-08-22T05:41:50.323Z,89.20
2022-08-22T05:44:25.851Z,88.00
2022-08-22T05:47:01.663Z,86.80
2022-08-22T05:49:39.715Z,87.30
2022-08-22T05:52:25.799Z,87.70
2022-08-22T05:55:05.577Z,87.70
2022-08-22T05:57:40.642Z,87.70
2022-08-22T06:00:17.067Z,87.90
2022-08-22T06:03:00.491Z,88.10
2022-08-22T06:05:37.615Z,89.60
2022-08-22T06:08:18.766Z,89.40
2022-08-22T06:10:53.678Z,90.00
2022-08-22T06:13:33.925Z,90.20
2022-08-22T06:16:10.217Z,89.60
2022-08-22T06:18:44.623Z,88.70
2022-08-22T06:21:22.074Z,89.40
2022-08-22T06:23:58.235Z,89.90
2022-08-22T06:26:35.743Z,90.10
2022-08-22T06:29:09.425Z,90.40
2022-08-22T06:31:44.741Z,90.10
2022-08-22T06:34:23.591Z,90.30
2022-08-22T06:36:57.767Z,90.60
2022-08-22T06:39:33.465Z,91.40
2022-08-22T06:42:14.523Z,90.90
2022-08-22T06:44:52.733Z,91.10
2022-08-22T06:47:28.578Z,91.20
2022-08-22T06:50:05.055Z,91.60
2022-08-22T06:52:49.039Z,93.00
2022-08-22T06:55:24.780Z,94.60
2022-08-22T07:03:10.919Z,97.60
2022-08-22T07:05:43.441Z,95.60
2022-08-22T07:08:19.603Z,95.10
2022-08-22T07:16:08.423Z,98.20
2022-08-22T07:21:28.497Z,95.70
2022-08-22T07:24:01.931Z,93.70
2022-08-22T07:50:28.721Z,95.60
2022-08-22T07:53:10.335Z,94.00
2022-08-22T07:55:49.651Z,92.30
2022-08-22T07:58:26.902Z,93.00
2022-08-22T08:00:59.227Z,94.20
2022-08-22T08:03:31.710Z,93.20
2022-08-22T08:06:04.613Z,93.50
2022-08-22T08:08:41.748Z,90.10
2022-08-22T08:11:16.256Z,90.90
2022-08-22T08:19:03.381Z,96.40
2022-08-22T08:21:39.585Z,93.20
2022-08-22T08:24:16.269Z,93.50
2022-08-22T08:43:21.004Z,94.00
2022-08-22T08:46:28.044Z,92.70
2022-08-22T08:49:33.650Z,91.80
2022-08-22T08:52:25.782Z,92.50
2022-08-22T08:55:21.698Z,93.00
2022-08-22T10:19:21.412Z,90.10
2022-08-22T10:22:37.024Z,86.50
2022-08-22T10:25:24.688Z,83.30
2022-08-22T10:28:10.512Z,84.80
2022-08-22T10:33:33.702Z,88.50
2022-08-22T10:36:12.004Z,84.60
2022-08-22T10:38:47.471Z,83.30
2022-08-22T10:41:30.396Z,84.50
2022-08-22T10:44:10.962Z,84.00
2022-08-22T10:46:49.947Z,84.90
2022-08-22T10:49:28.994Z,84.30
2022-08-22T10:52:15.723Z,84.20
2022-08-22T10:54:51.429Z,83.00
2022-08-22T10:57:38.998Z,80.30
2022-08-22T11:00:30.176Z,75.20
2022-08-22T11:03:15.165Z,73.50
2022-08-22T11:05:58.119Z,73.50
2022-08-22T11:09:04.450Z,73.80
2022-08-22T11:11:43.844Z,74.00
2022-08-22T11:14:31.032Z,74.40
2022-08-22T11:17:31.029Z,76.00
2022-08-22T11:20:19.468Z,79.40
2022-08-22T11:23:12.368Z,75.40
2022-08-22T11:25:56.211Z,73.80
2022-08-22T11:28:52.073Z,72.30
2022-08-22T11:31:36.688Z,69.80
2022-08-22T11:34:20.557Z,68.20
2022-08-22T11:36:55.542Z,68.70
2022-08-22T11:39:36.092Z,67.70
2022-08-22T11:42:14.731Z,68.00
2022-08-22T11:44:57.246Z,67.70
2022-08-22T11:47:36.417Z,66.90
2022-08-22T11:50:15.921Z,66.60
2022-08-22T11:53:04.643Z,66.70
2022-08-22T11:55:48.458Z,66.50
2022-08-22T11:58:31.559Z,66.20
2022-08-22T12:01:17.299Z,65.80
2022-08-22T12:04:09.911Z,65.60
2022-08-22T12:07:02.358Z,65.20
2022-08-22T12:09:42.695Z,65.30
2022-08-22T12:12:47.411Z,65.00
2022-08-22T12:15:23.206Z,64.10
2022-08-22T12:18:17.913Z,63.60
2022-08-22T12:21:21.602Z,63.20
2022-08-22T12:24:21.064Z,62.90
2022-08-22T12:27:18.332Z,62.70
2022-08-22T12:30:13.834Z,62.60
2022-08-22T12:33:22.080Z,64.10
2022-08-22T12:36:05.795Z,64.40
2022-08-22T12:39:07.944Z,65.50
2022-08-22T12:42:06.683Z,63.40
2022-08-22T12:44:54.988Z,63.50
2022-08-22T12:47:42.288Z,59.90
2022-08-22T12:50:23.945Z,58.70
2022-08-22T12:53:08.673Z,58.60
2022-08-22T12:55:59.531Z,57.40
2022-08-22T12:58:45.908Z,56.50
2022-08-22T13:01:33.956Z,55.00
2022-08-22T13:04:13.281Z,40.20
2022-08-22T13:07:16.377Z,39.70
2022-08-22T13:09:52.323Z,58.80
2022-08-22T13:12:28.642Z,59.30
2022-08-22T13:15:13.285Z,61.10
2022-08-22T13:17:45.443Z,60.10
2022-08-22T13:20:24.179Z,57.70
2022-08-22T13:23:00.292Z,57.30
2022-08-22T13:26:08.697Z,58.10
2022-08-22T13:28:45.620Z,59.50
2022-08-22T13:31:26.241Z,56.40
2022-08-22T13:34:01.797Z,58.70
2022-08-22T13:36:52.000Z,51.00
2022-08-22T13:39:28.536Z,56.50
2022-08-22T13:42:27.574Z,53.80
2022-08-22T13:44:59.301Z,34.40
2022-08-22T13:47:34.704Z,34.10
2022-08-22T13:50:12.279Z,33.90
2022-08-22T13:52:52.442Z,33.70
2022-08-22T13:55:36.008Z,33.60
2022-08-22T13:58:20.177Z,33.60
2022-08-22T14:01:37.783Z,33.10
2022-08-22T14:04:28.403Z,33.50
2022-08-22T14:07:27.505Z,33.00
2022-08-22T14:10:05.809Z,32.60
2022-08-22T14:13:06.153Z,32.60
2022-08-22T14:15:45.380Z,32.90
2022-08-22T14:18:30.056Z,32.30
2022-08-22T14:21:41.593Z,32.20
2022-08-22T14:24:21.173Z,32.30
2022-08-22T14:27:05.559Z,32.30
2022-08-22T14:29:44.724Z,32.10
2022-08-22T14:32:50.261Z,32.60
2022-08-22T14:35:29.274Z,32.70
2022-08-22T14:38:27.268Z,32.70
2022-08-22T14:41:05.435Z,33.10
2022-08-22T14:43:48.074Z,36.30
2022-08-22T14:46:27.004Z,50.10
2022-08-22T14:49:35.204Z,50.80
2022-08-22T14:52:10.257Z,53.00
2022-08-22T14:55:08.745Z,54.20
2022-08-22T14:57:46.694Z,49.20
2022-08-22T15:00:29.455Z,52.80
2022-08-22T15:03:21.229Z,48.10
2022-08-22T15:05:57.836Z,50.00
2022-08-22T15:08:34.357Z,48.10
2022-08-22T15:11:22.941Z,42.20
2022-08-22T15:14:01.860Z,42.10
2022-08-22T15:16:38.038Z,42.20
2022-08-22T15:19:24.744Z,42.70
2022-08-22T15:22:13.509Z,43.10
2022-08-22T15:24:50.725Z,43.50
2022-08-22T15:27:29.979Z,44.10
2022-08-22T15:30:07.019Z,45.30
2022-08-22T15:32:52.463Z,46.60
2022-08-22T15:35:30.084Z,49.10
2022-08-22T15:38:06.738Z,50.50
2022-08-22T15:40:41.641Z,48.90
2022-08-22T15:43:22.359Z,50.30
2022-08-22T15:46:18.204Z,53.80
2022-08-22T15:48:57.339Z,47.90
2022-08-22T15:51:39.738Z,47.90
2022-08-22T15:54:24.770Z,48.00
2022-08-22T15:57:15.143Z,48.40
2022-08-22T15:59:54.742Z,48.50
2022-08-22T16:02:35.103Z,48.60
2022-08-22T16:05:24.746Z,49.00
2022-08-22T16:08:04.616Z,49.50
2022-08-22T16:10:43.106Z,50.90
2022-08-22T16:13:32.232Z,53.90
2022-08-22T16:16:07.832Z,53.00
2022-08-22T16:19:16.863Z,49.20
2022-08-22T16:22:10.946Z,48.30
2022-08-22T16:25:06.638Z,47.50
2022-08-22T16:27:54.165Z,47.30
2022-08-22T16:30:38.290Z,47.40
2022-08-22T16:33:17.793Z,47.50
2022-08-22T16:36:23.518Z,47.50
2022-08-22T16:38:57.535Z,47.60
2022-08-22T16:41:33.528Z,48.20
2022-08-22T16:44:22.694Z,48.40
2022-08-22T16:46:55.685Z,47.80
2022-08-22T16:49:29.697Z,47.60
2022-08-22T16:52:19.802Z,47.70
2022-08-22T16:54:52.447Z,48.10
2022-08-22T16:57:27.041Z,48.20
2022-08-22T17:00:12.889Z,48.20
2022-08-22T17:03:03.549Z,48.40
2022-08-22T17:05:48.056Z,48.40
2022-08-22T17:08:26.610Z,48.70
2022-08-22T17:11:02.729Z,49.10
2022-08-22T17:13:43.036Z,49.20
2022-08-22T17:16:23.712Z,49.50
2022-08-22T17:19:02.087Z,49.60
2022-08-22T17:21:38.218Z,49.60
2022-08-22T17:24:33.640Z,49.80
2022-08-22T17:27:07.571Z,49.90
2022-08-22T17:29:53.964Z,50.10
2022-08-22T17:32:32.337Z,50.10
2022-08-22T17:35:13.207Z,50.30
2022-08-22T17:37:49.987Z,50.40
2022-08-22T17:40:25.942Z,50.40
2022-08-22T17:43:05.461Z,50.60
2022-08-22T17:45:44.362Z,50.70
2022-08-22T17:48:18.986Z,50.90
2022-08-22T17:50:52.577Z,51.20
2022-08-22T17:53:28.959Z,51.80
2022-08-22T17:56:04.396Z,52.20
2022-08-22T17:58:43.788Z,52.90
2022-08-22T18:01:45.872Z,53.60
2022-08-22T18:04:22.967Z,55.40
2022-08-22T18:06:56.785Z,55.50
2022-08-22T18:09:36.888Z,52.10
2022-08-22T18:12:15.787Z,52.50
2022-08-22T18:14:49.814Z,52.50
2022-08-22T18:17:29.583Z,52.80
2022-08-22T18:20:09.394Z,53.40
2022-08-22T18:22:44.019Z,53.40
2022-08-22T18:25:34.497Z,53.50
2022-08-22T18:28:12.727Z,53.80
2022-08-22T18:30:55.671Z,55.10
2022-08-22T18:33:32.816Z,55.40
2022-08-22T18:36:09.321Z,57.70
2022-08-22T18:38:50.591Z,57.00
2022-08-22T18:41:32.018Z,59.30
2022-08-22T18:44:11.355Z,58.60
2022-08-22T18:46:46.884Z,58.60
2022-08-22T18:49:40.197Z,59.70
2022-08-22T18:52:37.063Z,61.80
2022-08-22T18:55:43.516Z,63.20
2022-08-22T18:58:43.803Z,64.20
2022-08-22T19:01:41.347Z,67.80
2022-08-22T19:04:41.067Z,65.30
2022-08-22T19:07:35.411Z,41.00
2022-08-22T19:10:34.785Z,39.80
2022-08-22T19:13:30.052Z,40.20
2022-08-22T19:16:26.780Z,40.50
2022-08-22T19:19:01.479Z,40.70
2022-08-22T19:21:53.443Z,40.80
2022-08-22T19:24:56.926Z,41.00
2022-08-22T19:27:32.009Z,41.20
2022-08-22T19:30:07.756Z,41.20
2022-08-22T19:33:00.490Z,41.30
2022-08-22T19:35:45.685Z,41.70
2022-08-22T19:38:52.835Z,41.90
2022-08-22T19:41:47.899Z,42.20
2022-08-22T19:44:42.131Z,42.30
2022-08-22T19:47:27.115Z,42.50
2022-08-22T19:50:05.401Z,42.60
2022-08-22T19:53:16.504Z,42.60
2022-08-22T19:56:17.159Z,42.80
2022-08-22T19:58:59.049Z,42.90
2022-08-22T20:01:45.809Z,43.00
2022-08-22T20:04:54.960Z,43.10
2022-08-22T20:07:38.232Z,43.20
2022-08-22T20:10:22.301Z,43.30
2022-08-22T20:13:05.457Z,43.40
2022-08-22T20:16:01.636Z,43.60
2022-08-22T20:19:04.915Z,43.50
2022-08-22T20:21:46.139Z,43.70
2022-08-22T20:24:24.235Z,43.60
2022-08-22T20:27:15.621Z,43.70
2022-08-22T20:29:53.896Z,43.80
2022-08-22T20:32:26.286Z,44.50
2022-08-22T20:35:02.679Z,44.00
2022-08-22T20:38:05.353Z,44.10
2022-08-22T20:40:55.324Z,44.10
2022-08-22T20:43:34.980Z,44.30
2022-08-22T20:46:35.206Z,44.40
2022-08-22T20:49:09.075Z,44.50
2022-08-22T20:51:50.725Z,44.50
2022-08-22T20:54:24.355Z,45.20
2022-08-22T20:57:00.054Z,44.80
2022-08-22T20:59:35.985Z,51.70
2022-08-22T21:02:13.844Z,59.40
2022-08-22T21:04:56.926Z,71.30
2022-08-22T21:10:25.581Z,77.50
2022-08-22T21:13:03.595Z,72.70
2022-08-22T21:15:38.601Z,68.70
2022-08-22T21:18:11.650Z,67.40
2022-08-22T21:20:43.401Z,65.20
2022-08-22T21:23:19.679Z,64.70
2022-08-22T21:25:56.444Z,66.00
2022-08-22T21:28:31.067Z,65.40
2022-08-22T21:31:11.593Z,65.10
2022-08-22T21:33:45.826Z,64.70
2022-08-22T21:36:20.190Z,63.30
2022-08-22T21:38:56.184Z,61.90
2022-08-22T21:41:32.711Z,61.40
2022-08-22T21:44:26.561Z,61.20
2022-08-22T21:47:14.941Z,60.70
2022-08-22T21:50:15.807Z,60.40
2022-08-22T21:53:05.641Z,60.20
2022-08-22T21:55:46.587Z,60.10
2022-08-22T21:58:36.671Z,59.70
2022-08-22T22:01:28.018Z,59.20
2022-08-22T22:04:00.756Z,59.70
2022-08-22T22:06:32.489Z,59.20
2022-08-22T22:09:04.410Z,59.40
2022-08-22T22:11:38.649Z,59.60
2022-08-22T22:14:10.576Z,59.90
2022-08-22T22:16:42.332Z,60.10
2022-08-22T22:19:14.290Z,60.40
2022-08-22T22:21:46.046Z,61.10
2022-08-22T22:24:17.830Z,61.80
2022-08-22T22:26:51.010Z,64.90
2022-08-22T22:29:22.996Z,63.90
2022-08-22T22:34:27.275Z,76.10
2022-08-22T22:36:59.519Z,75.20
2022-08-22T22:39:31.424Z,70.90
2022-08-22T22:42:05.707Z,76.40
2022-08-22T22:44:37.524Z,65.60
2022-08-22T22:47:09.258Z,63.00
2022-08-22T22:49:41.049Z,68.70
2022-08-22T22:52:13.696Z,68.40
2022-08-22T22:54:45.452Z,66.60
2022-08-22T22:57:25.631Z,67.40
2022-08-22T22:59:57.619Z,66.90
2022-08-22T23:02:29.407Z,62.30
2022-08-22T23:05:01.209Z,60.50
2022-08-22T23:07:34.000Z,60.10
2022-08-22T23:10:07.930Z,59.40
2022-08-22T23:12:41.065Z,63.20
2022-08-22T23:15:12.871Z,68.70
2022-08-22T23:17:44.874Z,58.40
2022-08-22T23:22:49.722Z,50.60
2022-08-22T23:25:21.550Z,51.10
2022-08-22T23:27:54.934Z,51.20
2022-08-22T23:30:26.584Z,51.40
2022-08-22T23:32:58.551Z,51.20
2022-08-22T23:35:30.309Z,51.30
2022-08-22T23:38:02.144Z,51.40
2022-08-22T23:40:33.968Z,51.60
2022-08-22T23:43:07.092Z,51.80
2022-08-22T23:45:38.846Z,51.90
2022-08-22T23:48:10.594Z,52.00
2022-08-22T23:50:42.345Z,53.90
2022-08-22T23:53:14.116Z,52.20
2022-08-22T23:55:45.876Z,52.40
2022-08-22T23:58:19.013Z,52.60
